Sign in

Advertising

Info

Aviation weather - KDAB

METAR KDAB 240553Z 22003KT 10SM FEW150 24/23 A3005 RMK AO2 SLP174 T02390228 10294 20239 50001 $

TAF KDAB 240603Z 2406/2506 VRB02KT P6SM SKC FM241600 10008KT P6SM FEW045 FM250100 15003KT P6SM SKC

Aviation weather from ADDS. Re-check weather before flight.

-